sensor_id;sensor_type;location;lat;lon;timestamp;temperature;humidity
23755;DHT22;12057;52.042;6.830;2023-08-30T03:18:33;16.60;99.90
23755;DHT22;12057;52.042;6.830;2023-08-30T03:36:05;16.50;99.90
23755;DHT22;12057;52.042;6.830;2023-08-30T03:41:06;16.40;99.90
23755;DHT22;12057;52.042;6.830;2023-08-30T03:46:07;16.30;99.90
23755;DHT22;12057;52.042;6.830;2023-08-30T03:51:09;16.30;99.90
23755;DHT22;12057;52.042;6.830;2023-08-30T03:56:10;16.20;99.90
23755;DHT22;12057;52.042;6.830;2023-08-30T04:01:11;16.20;99.90
23755;DHT22;12057;52.042;6.830;2023-08-30T04:06:12;16.30;99.90
23755;DHT22;12057;52.042;6.830;2023-08-30T04:11:12;16.30;99.90
23755;DHT22;12057;52.042;6.830;2023-08-30T04:16:13;16.30;99.90
23755;DHT22;12057;52.042;6.830;2023-08-30T04:21:14;16.10;99.90
23755;DHT22;12057;52.042;6.830;2023-08-30T04:26:15;16.10;99.90
23755;DHT22;12057;52.042;6.830;2023-08-30T04:31:15;16.10;99.90
23755;DHT22;12057;52.042;6.830;2023-08-30T04:36:16;16.10;99.90
23755;DHT22;12057;52.042;6.830;2023-08-30T04:41:17;16.10;99.90
23755;DHT22;12057;52.042;6.830;2023-08-30T04:46:18;16.00;99.90
23755;DHT22;12057;52.042;6.830;2023-08-30T04:51:19;15.90;99.90
23755;DHT22;12057;52.042;6.830;2023-08-30T04:56:19;15.90;99.90
23755;DHT22;12057;52.042;6.830;2023-08-30T05:01:20;15.90;99.90
23755;DHT22;12057;52.042;6.830;2023-08-30T05:06:21;15.90;99.90
23755;DHT22;12057;52.042;6.830;2023-08-30T05:11:22;15.80;99.90
23755;DHT22;12057;52.042;6.830;2023-08-30T05:16:23;15.80;99.90
23755;DHT22;12057;52.042;6.830;2023-08-30T05:21:24;15.80;99.90
23755;DHT22;12057;52.042;6.830;2023-08-30T05:26:24;15.90;99.90
23755;DHT22;12057;52.042;6.830;2023-08-30T05:31:25;16.00;99.90
23755;DHT22;12057;52.042;6.830;2023-08-30T05:36:26;16.00;99.90
23755;DHT22;12057;52.042;6.830;2023-08-30T05:41:27;16.00;99.90
23755;DHT22;12057;52.042;6.830;2023-08-30T05:46:28;16.10;99.90
23755;DHT22;12057;52.042;6.830;2023-08-30T05:51:29;16.20;99.90
23755;DHT22;12057;52.042;6.830;2023-08-30T05:56:29;16.10;99.90
23755;DHT22;12057;52.042;6.830;2023-08-30T06:01:30;16.10;99.90
23755;DHT22;12057;52.042;6.830;2023-08-30T06:06:31;16.20;99.90
23755;DHT22;12057;52.042;6.830;2023-08-30T06:11:32;16.20;99.90
23755;DHT22;12057;52.042;6.830;2023-08-30T06:16:33;16.30;99.90
23755;DHT22;12057;52.042;6.830;2023-08-30T06:21:34;16.50;99.90
23755;DHT22;12057;52.042;6.830;2023-08-30T06:26:35;16.50;99.90
23755;DHT22;12057;52.042;6.830;2023-08-30T06:31:35;16.70;99.90
23755;DHT22;12057;52.042;6.830;2023-08-30T06:36:38;16.60;99.90
23755;DHT22;12057;52.042;6.830;2023-08-30T06:41:38;16.50;99.90
23755;DHT22;12057;52.042;6.830;2023-08-30T06:46:39;16.80;99.90
23755;DHT22;12057;52.042;6.830;2023-08-30T06:51:40;17.10;99.90
23755;DHT22;12057;52.042;6.830;2023-08-30T06:56:41;17.10;99.90
23755;DHT22;12057;52.042;6.830;2023-08-30T07:01:43;17.50;99.90
23755;DHT22;12057;52.042;6.830;2023-08-30T07:06:44;17.50;99.90
23755;DHT22;12057;52.042;6.830;2023-08-30T07:11:45;17.30;99.90
23755;DHT22;12057;52.042;6.830;2023-08-30T07:16:46;17.60;99.90
23755;DHT22;12057;52.042;6.830;2023-08-30T07:21:47;17.60;99.90
23755;DHT22;12057;52.042;6.830;2023-08-30T07:26:48;18.10;99.90
23755;DHT22;12057;52.042;6.830;2023-08-30T07:31:49;17.90;99.90
23755;DHT22;12057;52.042;6.830;2023-08-30T07:36:54;18.00;99.90
23755;DHT22;12057;52.042;6.830;2023-08-30T07:41:56;18.10;99.90
23755;DHT22;12057;52.042;6.830;2023-08-30T07:46:57;18.60;99.90
23755;DHT22;12057;52.042;6.830;2023-08-30T07:51:57;18.60;99.90
23755;DHT22;12057;52.042;6.830;2023-08-30T07:56:58;19.00;99.90
23755;DHT22;12057;52.042;6.830;2023-08-30T08:01:59;19.10;99.90
23755;DHT22;12057;52.042;6.830;2023-08-30T08:07:00;19.30;99.90
23755;DHT22;12057;52.042;6.830;2023-08-30T08:12:01;19.40;99.90
23755;DHT22;12057;52.042;6.830;2023-08-30T08:17:02;19.00;99.90
23755;DHT22;12057;52.042;6.830;2023-08-30T08:22:03;19.00;99.90
23755;DHT22;12057;52.042;6.830;2023-08-30T08:27:03;19.10;99.90
23755;DHT22;12057;52.042;6.830;2023-08-30T08:32:06;19.00;99.90
23755;DHT22;12057;52.042;6.830;2023-08-30T08:37:09;19.10;99.90
23755;DHT22;12057;52.042;6.830;2023-08-30T08:42:10;19.20;99.90
23755;DHT22;12057;52.042;6.830;2023-08-30T08:47:11;19.10;99.90
23755;DHT22;12057;52.042;6.830;2023-08-30T08:52:14;18.80;99.90
23755;DHT22;12057;52.042;6.830;2023-08-30T08:57:15;19.10;99.90
23755;DHT22;12057;52.042;6.830;2023-08-30T09:02:16;19.20;99.90
23755;DHT22;12057;52.042;6.830;2023-08-30T09:07:17;19.20;99.90
23755;DHT22;12057;52.042;6.830;2023-08-30T09:12:19;18.90;99.90
23755;DHT22;12057;52.042;6.830;2023-08-30T09:17:21;18.60;99.90
23755;DHT22;12057;52.042;6.830;2023-08-30T09:22:22;18.80;99.90
23755;DHT22;12057;52.042;6.830;2023-08-30T09:27:32;18.80;99.90
23755;DHT22;12057;52.042;6.830;2023-08-30T09:32:39;19.10;99.90
23755;DHT22;12057;52.042;6.830;2023-08-30T09:37:40;19.10;99.90
23755;DHT22;12057;52.042;6.830;2023-08-30T09:42:44;19.00;99.90
23755;DHT22;12057;52.042;6.830;2023-08-30T09:47:49;19.00;99.90
23755;DHT22;12057;52.042;6.830;2023-08-30T09:52:50;19.00;99.90
23755;DHT22;12057;52.042;6.830;2023-08-30T09:57:54;18.80;99.90
23755;DHT22;12057;52.042;6.830;2023-08-30T10:02:58;19.00;99.90
23755;DHT22;12057;52.042;6.830;2023-08-30T10:07:59;18.80;99.90
23755;DHT22;12057;52.042;6.830;2023-08-30T10:13:01;18.60;99.90
23755;DHT22;12057;52.042;6.830;2023-08-30T10:18:02;18.40;99.90
23755;DHT22;12057;52.042;6.830;2023-08-30T10:23:04;18.30;99.90
23755;DHT22;12057;52.042;6.830;2023-08-30T10:28:09;18.40;99.90
23755;DHT22;12057;52.042;6.830;2023-08-30T10:33:13;18.30;99.90
23755;DHT22;12057;52.042;6.830;2023-08-30T10:38:27;18.00;99.90
23755;DHT22;12057;52.042;6.830;2023-08-30T10:43:29;18.10;99.90
23755;DHT22;12057;52.042;6.830;2023-08-30T10:48:37;17.90;99.90
23755;DHT22;12057;52.042;6.830;2023-08-30T10:53:38;17.70;99.90
23755;DHT22;12057;52.042;6.830;2023-08-30T10:58:43;17.50;99.90
23755;DHT22;12057;52.042;6.830;2023-08-30T11:03:46;17.60;99.90
23755;DHT22;12057;52.042;6.830;2023-08-30T11:08:48;17.70;99.90
23755;DHT22;12057;52.042;6.830;2023-08-30T11:13:50;17.60;99.90
23755;DHT22;12057;52.042;6.830;2023-08-30T11:18:50;17.70;99.90
23755;DHT22;12057;52.042;6.830;2023-08-30T11:23:51;17.70;99.90
23755;DHT22;12057;52.042;6.830;2023-08-30T11:28:52;17.70;99.90
23755;DHT22;12057;52.042;6.830;2023-08-30T11:33:57;17.50;99.90
23755;DHT22;12057;52.042;6.830;2023-08-30T11:38:58;17.60;99.90
23755;DHT22;12057;52.042;6.830;2023-08-30T11:43:59;17.60;99.90
23755;DHT22;12057;52.042;6.830;2023-08-30T11:49:01;17.70;99.90
23755;DHT22;12057;52.042;6.830;2023-08-30T11:54:03;17.80;99.90
23755;DHT22;12057;52.042;6.830;2023-08-30T11:59:04;18.40;99.90
23755;DHT22;12057;52.042;6.830;2023-08-30T12:04:10;18.90;99.90
23755;DHT22;12057;52.042;6.830;2023-08-30T12:09:14;19.20;99.90
23755;DHT22;12057;52.042;6.830;2023-08-30T12:14:16;19.30;99.90
23755;DHT22;12057;52.042;6.830;2023-08-30T12:19:17;19.60;99.90
23755;DHT22;12057;52.042;6.830;2023-08-30T12:24:18;19.60;99.90
23755;DHT22;12057;52.042;6.830;2023-08-30T12:29:19;19.80;99.90
23755;DHT22;12057;52.042;6.830;2023-08-30T12:34:20;20.50;99.90
23755;DHT22;12057;52.042;6.830;2023-08-30T12:39:21;20.30;99.90
23755;DHT22;12057;52.042;6.830;2023-08-30T12:44:22;20.00;99.90
23755;DHT22;12057;52.042;6.830;2023-08-30T12:49:23;19.60;99.90
23755;DHT22;12057;52.042;6.830;2023-08-30T12:54:23;19.50;99.90
23755;DHT22;12057;52.042;6.830;2023-08-30T12:59:24;19.30;99.90
23755;DHT22;12057;52.042;6.830;2023-08-30T13:04:28;19.10;99.90
23755;DHT22;12057;52.042;6.830;2023-08-30T13:09:29;19.00;99.90
23755;DHT22;12057;52.042;6.830;2023-08-30T13:14:30;19.50;99.90
23755;DHT22;12057;52.042;6.830;2023-08-30T13:19:30;19.40;99.90
23755;DHT22;12057;52.042;6.830;2023-08-30T13:24:31;20.10;99.90
23755;DHT22;12057;52.042;6.830;2023-08-30T13:29:33;20.70;99.90
23755;DHT22;12057;52.042;6.830;2023-08-30T13:34:33;20.90;99.90
23755;DHT22;12057;52.042;6.830;2023-08-30T13:39:34;20.90;99.90
23755;DHT22;12057;52.042;6.830;2023-08-30T13:44:35;20.90;99.90
23755;DHT22;12057;52.042;6.830;2023-08-30T13:49:37;21.10;99.90
23755;DHT22;12057;52.042;6.830;2023-08-30T13:54:41;21.40;99.90
23755;DHT22;12057;52.042;6.830;2023-08-30T13:59:42;21.10;99.90
23755;DHT22;12057;52.042;6.830;2023-08-30T14:04:43;21.50;99.90
23755;DHT22;12057;52.042;6.830;2023-08-30T14:09:44;21.90;99.90
23755;DHT22;12057;52.042;6.830;2023-08-30T14:14:45;22.00;99.90
23755;DHT22;12057;52.042;6.830;2023-08-30T14:19:45;22.10;99.90
23755;DHT22;12057;52.042;6.830;2023-08-30T14:24:46;22.40;99.90
23755;DHT22;12057;52.042;6.830;2023-08-30T14:29:47;22.50;99.90
23755;DHT22;12057;52.042;6.830;2023-08-30T14:34:48;22.40;99.90
23755;DHT22;12057;52.042;6.830;2023-08-30T14:39:48;22.10;99.90
23755;DHT22;12057;52.042;6.830;2023-08-30T14:44:50;22.40;99.90
23755;DHT22;12057;52.042;6.830;2023-08-30T14:49:51;22.50;99.90
23755;DHT22;12057;52.042;6.830;2023-08-30T14:54:52;22.40;99.90
23755;DHT22;12057;52.042;6.830;2023-08-30T14:59:53;22.20;99.90
23755;DHT22;12057;52.042;6.830;2023-08-30T15:04:53;22.40;99.90
23755;DHT22;12057;52.042;6.830;2023-08-30T15:09:54;22.50;99.90
23755;DHT22;12057;52.042;6.830;2023-08-30T15:14:55;22.30;99.90
23755;DHT22;12057;52.042;6.830;2023-08-30T15:19:59;22.40;99.90
23755;DHT22;12057;52.042;6.830;2023-08-30T15:25:00;22.20;99.90
23755;DHT22;12057;52.042;6.830;2023-08-30T15:30:03;22.10;99.90
23755;DHT22;12057;52.042;6.830;2023-08-30T15:35:04;22.10;99.90
23755;DHT22;12057;52.042;6.830;2023-08-30T15:40:05;22.10;99.90
23755;DHT22;12057;52.042;6.830;2023-08-30T15:45:08;22.10;99.90
23755;DHT22;12057;52.042;6.830;2023-08-30T15:50:12;22.40;99.90
23755;DHT22;12057;52.042;6.830;2023-08-30T15:55:13;22.20;99.90
23755;DHT22;12057;52.042;6.830;2023-08-30T16:00:14;21.60;99.90
23755;DHT22;12057;52.042;6.830;2023-08-30T16:05:15;21.60;99.90
23755;DHT22;12057;52.042;6.830;2023-08-30T16:10:16;21.70;99.90
23755;DHT22;12057;52.042;6.830;2023-08-30T16:15:17;21.10;99.90
23755;DHT22;12057;52.042;6.830;2023-08-30T16:20:18;21.30;99.90
23755;DHT22;12057;52.042;6.830;2023-08-30T16:25:19;21.20;99.90
23755;DHT22;12057;52.042;6.830;2023-08-30T16:30:19;21.40;99.90
23755;DHT22;12057;52.042;6.830;2023-08-30T16:35:20;21.00;99.90
23755;DHT22;12057;52.042;6.830;2023-08-30T16:40:21;20.70;99.90
23755;DHT22;12057;52.042;6.830;2023-08-30T16:45:23;20.40;99.90
23755;DHT22;12057;52.042;6.830;2023-08-30T16:50:24;20.40;99.90
23755;DHT22;12057;52.042;6.830;2023-08-30T16:55:24;20.30;99.90
23755;DHT22;12057;52.042;6.830;2023-08-30T17:00:25;20.10;99.90
23755;DHT22;12057;52.042;6.830;2023-08-30T17:05:29;19.80;99.90
23755;DHT22;12057;52.042;6.830;2023-08-30T17:10:30;19.60;99.90
23755;DHT22;12057;52.042;6.830;2023-08-30T17:15:31;19.50;99.90
23755;DHT22;12057;52.042;6.830;2023-08-30T17:20:32;19.50;99.90
23755;DHT22;12057;52.042;6.830;2023-08-30T17:25:33;19.10;99.90
23755;DHT22;12057;52.042;6.830;2023-08-30T17:30:33;18.90;99.90
23755;DHT22;12057;52.042;6.830;2023-08-30T17:35:35;18.80;99.90
23755;DHT22;12057;52.042;6.830;2023-08-30T17:40:36;18.80;99.90
23755;DHT22;12057;52.042;6.830;2023-08-30T17:45:37;19.00;99.90
23755;DHT22;12057;52.042;6.830;2023-08-30T17:50:41;18.80;99.90
23755;DHT22;12057;52.042;6.830;2023-08-30T17:55:43;19.00;99.90
23755;DHT22;12057;52.042;6.830;2023-08-30T18:00:43;18.70;99.90
23755;DHT22;12057;52.042;6.830;2023-08-30T18:05:44;18.70;99.90
23755;DHT22;12057;52.042;6.830;2023-08-30T18:10:45;18.70;99.90
23755;DHT22;12057;52.042;6.830;2023-08-30T18:15:46;18.40;99.90
23755;DHT22;12057;52.042;6.830;2023-08-30T18:20:47;18.40;99.90
23755;DHT22;12057;52.042;6.830;2023-08-30T18:25:48;18.40;99.90
23755;DHT22;12057;52.042;6.830;2023-08-30T18:30:51;18.10;99.90
23755;DHT22;12057;52.042;6.830;2023-08-30T18:35:52;18.20;99.90
23755;DHT22;12057;52.042;6.830;2023-08-30T18:40:53;18.10;99.90
23755;DHT22;12057;52.042;6.830;2023-08-30T18:45:54;18.20;99.90
23755;DHT22;12057;52.042;6.830;2023-08-30T18:50:55;18.20;99.90
23755;DHT22;12057;52.042;6.830;2023-08-30T18:55:58;18.10;99.90
23755;DHT22;12057;52.042;6.830;2023-08-30T19:01:00;17.90;99.90
23755;DHT22;12057;52.042;6.830;2023-08-30T19:06:04;17.80;99.90
23755;DHT22;12057;52.042;6.830;2023-08-30T19:11:07;17.70;99.90
23755;DHT22;12057;52.042;6.830;2023-08-30T19:16:10;17.40;99.90
23755;DHT22;12057;52.042;6.830;2023-08-30T19:21:11;17.20;99.90
23755;DHT22;12057;52.042;6.830;2023-08-30T19:26:12;17.30;99.90
23755;DHT22;12057;52.042;6.830;2023-08-30T19:31:13;17.20;99.90
23755;DHT22;12057;52.042;6.830;2023-08-30T19:36:13;17.20;99.90
23755;DHT22;12057;52.042;6.830;2023-08-30T19:41:17;17.10;99.90
23755;DHT22;12057;52.042;6.830;2023-08-30T19:46:18;17.10;99.90
23755;DHT22;12057;52.042;6.830;2023-08-30T19:51:19;17.00;99.90
23755;DHT22;12057;52.042;6.830;2023-08-30T19:56:20;17.00;99.90
23755;DHT22;12057;52.042;6.830;2023-08-30T20:01:20;16.80;99.90
23755;DHT22;12057;52.042;6.830;2023-08-30T20:06:22;16.80;99.90
23755;DHT22;12057;52.042;6.830;2023-08-30T20:11:23;16.70;99.90
23755;DHT22;12057;52.042;6.830;2023-08-30T20:16:24;16.70;99.90
23755;DHT22;12057;52.042;6.830;2023-08-30T20:21:25;16.70;99.90
23755;DHT22;12057;52.042;6.830;2023-08-30T20:26:26;16.70;99.90
23755;DHT22;12057;52.042;6.830;2023-08-30T20:31:26;16.60;99.90
23755;DHT22;12057;52.042;6.830;2023-08-30T20:36:29;16.70;99.90
23755;DHT22;12057;52.042;6.830;2023-08-30T20:41:30;16.50;99.90
23755;DHT22;12057;52.042;6.830;2023-08-30T20:46:30;16.50;99.90
23755;DHT22;12057;52.042;6.830;2023-08-30T20:51:31;16.50;99.90
23755;DHT22;12057;52.042;6.830;2023-08-30T20:56:32;16.60;99.90
23755;DHT22;12057;52.042;6.830;2023-08-30T21:01:33;16.60;99.90
23755;DHT22;12057;52.042;6.830;2023-08-30T21:06:34;16.60;99.90
23755;DHT22;12057;52.042;6.830;2023-08-30T21:11:34;16.60;99.90
23755;DHT22;12057;52.042;6.830;2023-08-30T21:16:35;16.50;99.90
23755;DHT22;12057;52.042;6.830;2023-08-30T21:21:36;16.60;99.90
23755;DHT22;12057;52.042;6.830;2023-08-30T21:26:37;16.60;99.90
23755;DHT22;12057;52.042;6.830;2023-08-30T21:31:37;16.50;99.90
23755;DHT22;12057;52.042;6.830;2023-08-30T21:36:38;16.40;99.90
23755;DHT22;12057;52.042;6.830;2023-08-30T21:41:39;16.40;99.90
23755;DHT22;12057;52.042;6.830;2023-08-30T21:46:41;16.30;99.90
23755;DHT22;12057;52.042;6.830;2023-08-30T21:51:42;16.20;99.90
23755;DHT22;12057;52.042;6.830;2023-08-30T21:56:45;16.30;99.90
23755;DHT22;12057;52.042;6.830;2023-08-30T22:01:45;16.10;99.90
23755;DHT22;12057;52.042;6.830;2023-08-30T22:06:46;16.10;99.90
23755;DHT22;12057;52.042;6.830;2023-08-30T22:11:48;16.10;99.90
23755;DHT22;12057;52.042;6.830;2023-08-30T22:16:48;16.00;99.90
23755;DHT22;12057;52.042;6.830;2023-08-30T22:21:51;15.80;99.90
23755;DHT22;12057;52.042;6.830;2023-08-30T22:26:52;15.80;99.90
23755;DHT22;12057;52.042;6.830;2023-08-30T22:31:53;15.80;99.90
23755;DHT22;12057;52.042;6.830;2023-08-30T22:36:54;15.80;99.90
23755;DHT22;12057;52.042;6.830;2023-08-30T22:41:56;15.90;99.90
23755;DHT22;12057;52.042;6.830;2023-08-30T22:46:56;15.90;99.90
23755;DHT22;12057;52.042;6.830;2023-08-30T22:51:57;16.00;99.90
23755;DHT22;12057;52.042;6.830;2023-08-30T22:56:58;16.00;99.90
23755;DHT22;12057;52.042;6.830;2023-08-30T23:01:59;15.90;99.90
23755;DHT22;12057;52.042;6.830;2023-08-30T23:07:00;15.90;99.90
23755;DHT22;12057;52.042;6.830;2023-08-30T23:12:01;15.80;99.90
23755;DHT22;12057;52.042;6.830;2023-08-30T23:17:02;15.80;99.90
23755;DHT22;12057;52.042;6.830;2023-08-30T23:22:03;16.00;99.90
23755;DHT22;12057;52.042;6.830;2023-08-30T23:27:04;16.10;99.90
23755;DHT22;12057;52.042;6.830;2023-08-30T23:32:06;16.10;99.90
23755;DHT22;12057;52.042;6.830;2023-08-30T23:37:08;16.20;99.90
23755;DHT22;12057;52.042;6.830;2023-08-30T23:42:09;16.20;99.90
23755;DHT22;12057;52.042;6.830;2023-08-30T23:47:10;16.00;99.90
23755;DHT22;12057;52.042;6.830;2023-08-30T23:52:11;16.00;99.90
23755;DHT22;12057;52.042;6.830;2023-08-30T23:57:12;16.10;99.90
